Time;durP1;ratioP1;P1;durP2;ratioP2;P2;SDS_P1;SDS_P2;PMS_P1;PMS_P2;Temp;Humidity;BMP_temperature;BMP_pressure;BME280_temperature;BME280_humidity;BME280_pressure;Samples;Min_cycle;Max_cycle;Signal;HPM_P1;HPM_P2
2023/05/30 00:01:06;;;;;;;;;9.67;4.33;;;;;17.74;43.59;101872.59;6213277;22;73014;-60
2023/05/30 00:03:32;;;;;;;;;6.67;5.00;;;;;17.72;43.55;101882.63;6164045;22;45305;-60
2023/05/30 00:05:57;;;;;;;;;4.33;2.67;;;;;17.67;43.74;101873.97;6214276;22;45605;-60
2023/05/30 00:08:23;;;;;;;;;4.00;3.67;;;;;17.64;44.48;101874.19;6213854;22;65707;-60
2023/05/30 00:10:48;;;;;;;;;3.00;3.00;;;;;17.62;44.31;101874.25;6214583;22;45413;-60
2023/05/30 00:13:13;;;;;;;;;7.00;5.33;;;;;17.63;43.79;101880.50;6185687;22;66667;-60
2023/05/30 00:15:40;;;;;;;;;7.00;4.67;;;;;17.63;44.00;101888.59;6214576;22;45287;-60
2023/05/30 00:18:06;;;;;;;;;5.67;4.00;;;;;17.57;44.32;101883.56;6212305;22;45379;-60
2023/05/30 00:20:31;;;;;;;;;4.33;4.33;;;;;17.54;44.39;101873.88;6214845;22;45351;-60
2023/05/30 00:22:59;;;;;;;;;6.00;4.00;;;;;17.50;44.71;101872.34;6214017;22;45224;-60
2023/05/30 00:25:25;;;;;;;;;5.00;5.00;;;;;17.46;44.46;101876.19;6187896;22;45242;-60
2023/05/30 00:27:51;;;;;;;;;6.33;5.67;;;;;17.45;44.57;101882.53;6186974;22;59477;-60
2023/05/30 00:30:16;;;;;;;;;5.67;4.33;;;;;17.43;44.75;101887.13;6213390;22;45468;-60
2023/05/30 00:32:42;;;;;;;;;6.67;4.67;;;;;17.41;44.67;101886.38;6186687;22;54573;-60
2023/05/30 00:35:07;;;;;;;;;7.00;6.00;;;;;17.38;44.84;101886.53;6213153;22;45303;-59
2023/05/30 00:37:33;;;;;;;;;6.00;4.00;;;;;17.37;44.54;101893.75;6215150;22;45477;-60
2023/05/30 00:39:58;;;;;;;;;5.00;4.00;;;;;17.32;45.21;101893.16;6213299;22;67035;-60
2023/05/30 00:42:26;;;;;;;;;10.00;5.67;;;;;17.29;44.84;101893.38;6212703;22;72295;-61
2023/05/30 00:44:51;;;;;;;;;5.67;5.67;;;;;17.24;45.00;101885.56;6213882;22;45280;-60
2023/05/30 00:47:17;;;;;;;;;6.00;6.00;;;;;17.21;45.21;101885.78;6186392;22;67787;-60
2023/05/30 00:49:43;;;;;;;;;4.00;4.00;;;;;17.16;45.31;101890.56;6214548;22;45431;-60
2023/05/30 00:52:08;;;;;;;;;7.00;7.00;;;;;17.10;44.93;101889.09;6187184;22;45280;-60
2023/05/30 00:54:34;;;;;;;;;5.33;5.33;;;;;17.09;45.09;101883.81;6213492;22;52734;-60
2023/05/30 00:56:59;;;;;;;;;12.33;7.33;;;;;17.06;45.03;101890.22;6160580;22;68825;-60
2023/05/30 00:59:25;;;;;;;;;13.33;10.00;;;;;17.04;45.90;101878.72;6213076;22;46189;-60
2023/05/30 01:01:51;;;;;;;;;8.67;6.67;;;;;17.01;45.55;101881.59;6186719;22;67773;-59
2023/05/30 01:04:18;;;;;;;;;9.00;7.33;;;;;16.99;45.68;101883.50;6187713;22;45350;-60
2023/05/30 01:06:46;;;;;;;;;6.00;6.00;;;;;16.97;45.10;101880.03;6215620;22;45308;-59
2023/05/30 01:09:11;;;;;;;;;7.00;7.00;;;;;16.94;46.37;101875.72;6214635;22;46931;-60
2023/05/30 01:11:43;;;;;;;;;6.33;5.00;;;;;17.26;45.68;101880.97;6214656;22;60167;-59
2023/05/30 01:14:22;;;;;;;;;11.67;8.00;;;;;17.07;45.44;101883.06;6188225;22;45280;-59
2023/05/30 01:16:53;;;;;;;;;7.33;5.00;;;;;16.92;46.33;101880.34;6188911;22;45742;-59
2023/05/30 01:19:54;;;;;;;;;8.00;5.67;;;;;16.84;46.00;101883.44;6188958;22;45249;-59
2023/05/30 01:22:49;;;;;;;;;8.67;6.00;;;;;16.82;46.97;101887.19;6168473;22;45394;-59
2023/05/30 01:25:22;;;;;;;;;6.00;4.00;;;;;16.78;46.61;101889.19;6207539;22;45536;-62
2023/05/30 01:28:10;;;;;;;;;6.67;5.00;;;;;16.75;46.50;101892.06;6189037;22;45289;-59
2023/05/30 01:30:37;;;;;;;;;6.33;6.00;;;;;16.71;46.77;101895.84;6188181;22;46715;-60
2023/05/30 01:33:04;;;;;;;;;6.33;5.00;;;;;16.67;46.36;101889.81;6187921;22;45460;-61
2023/05/30 01:35:29;;;;;;;;;5.67;5.33;;;;;16.67;46.43;101889.81;6188721;22;45238;-60
2023/05/30 01:37:55;;;;;;;;;6.67;5.00;;;;;16.66;46.81;101893.44;6214087;22;63703;-61
2023/05/30 01:40:23;;;;;;;;;5.33;5.33;;;;;16.65;47.02;101891.72;6214608;22;72064;-61
2023/05/30 01:42:52;;;;;;;;;7.00;7.00;;;;;16.63;46.66;101904.34;6215551;22;45403;-59
2023/05/30 01:45:30;;;;;;;;;8.00;5.00;;;;;16.84;46.84;101904.06;6188649;22;45342;-59
2023/05/30 01:48:07;;;;;;;;;6.00;6.00;;;;;16.65;46.79;101901.59;6188161;22;46146;-59
2023/05/30 01:50:40;;;;;;;;;4.00;4.00;;;;;16.59;47.11;101897.44;6187965;22;46956;-59
2023/05/30 01:53:09;;;;;;;;;5.33;3.67;;;;;16.78;46.79;101897.22;6214445;22;45277;-59
2023/05/30 01:55:35;;;;;;;;;7.00;5.00;;;;;16.82;46.90;101906.84;6188905;22;45329;-59
2023/05/30 01:58:02;;;;;;;;;6.33;5.67;;;;;16.83;46.10;101903.19;6188034;22;45368;-59
2023/05/30 02:00:28;;;;;;;;;3.67;2.00;;;;;16.80;46.52;101908.72;6214018;22;54968;-59
2023/05/30 02:02:53;;;;;;;;;7.67;5.00;;;;;16.79;46.34;101903.47;6186217;22;53992;-59
2023/05/30 02:05:18;;;;;;;;;6.00;4.00;;;;;16.75;47.02;101907.28;6212494;22;61778;-60
2023/05/30 02:07:44;;;;;;;;;7.33;4.33;;;;;16.71;46.71;101893.16;6211588;22;66786;-60
2023/05/30 02:10:10;;;;;;;;;7.00;5.00;;;;;16.66;46.63;101908.69;6212242;22;45419;-60
2023/05/30 02:12:35;;;;;;;;;7.00;6.67;;;;;16.63;46.93;101911.56;6213559;22;45335;-60
2023/05/30 02:15:01;;;;;;;;;9.00;5.33;;;;;16.59;46.87;101910.88;6213055;22;49015;-59
2023/05/30 02:17:26;;;;;;;;;10.00;5.00;;;;;16.24;47.31;101915.56;6186693;22;45308;-59
2023/05/30 02:19:51;;;;;;;;;9.33;6.33;;;;;16.40;48.42;101910.19;6213898;22;62493;-60
2023/05/30 02:22:17;;;;;;;;;6.00;6.00;;;;;16.45;47.54;101913.47;6215393;22;45330;-59
2023/05/30 02:24:43;;;;;;;;;6.67;5.00;;;;;16.19;47.96;101905.09;6213883;22;68088;-59
2023/05/30 02:27:08;;;;;;;;;5.33;4.00;;;;;16.28;48.36;101896.53;6214244;22;45418;-59
2023/05/30 02:29:34;;;;;;;;;4.67;4.67;;;;;16.34;48.94;101906.91;6215369;22;45563;-59
2023/05/30 02:31:59;;;;;;;;;6.67;6.00;;;;;16.33;48.51;101897.09;6213889;22;45327;-59
2023/05/30 02:34:25;;;;;;;;;10.00;5.67;;;;;16.33;47.71;101901.63;6213340;22;45267;-59
2023/05/30 02:36:50;;;;;;;;;8.33;8.33;;;;;16.29;48.21;101900.94;6187549;22;58715;-59
2023/05/30 02:39:16;;;;;;;;;8.00;5.00;;;;;16.24;48.25;101902.16;6215100;22;46932;-59
2023/05/30 02:41:41;;;;;;;;;6.00;5.33;;;;;16.23;48.53;101901.31;6214511;22;68490;-59
2023/05/30 02:44:06;;;;;;;;;6.33;4.00;;;;;16.21;48.49;101903.19;6188428;22;45650;-60
2023/05/30 02:46:33;;;;;;;;;10.33;6.00;;;;;16.20;48.57;101901.44;6188257;22;45269;-60
2023/05/30 02:48:59;;;;;;;;;7.33;5.67;;;;;16.16;48.09;101900.75;6214041;22;45588;-60
2023/05/30 02:51:24;;;;;;;;;2.67;2.33;;;;;16.17;48.27;101902.50;6214683;22;45548;-60
2023/05/30 02:53:50;;;;;;;;;6.67;5.33;;;;;16.16;47.90;101906.13;6187682;22;45329;-60
2023/05/30 02:56:15;;;;;;;;;8.33;5.33;;;;;16.12;48.74;101909.06;6215475;22;45499;-60
2023/05/30 02:58:41;;;;;;;;;9.00;5.33;;;;;16.12;48.21;101911.75;6187448;22;66741;-60
2023/05/30 03:01:07;;;;;;;;;4.00;3.67;;;;;16.10;48.65;101911.84;6215158;22;45177;-60
2023/05/30 03:03:34;;;;;;;;;7.67;6.00;;;;;16.11;48.09;101910.03;6188439;22;45403;-60
2023/05/30 03:06:01;;;;;;;;;7.67;5.00;;;;;16.07;48.81;101917.38;6213565;22;45335;-60
2023/05/30 03:08:28;;;;;;;;;7.00;5.67;;;;;16.04;48.65;101912.19;6214035;22;45610;-60
2023/05/30 03:10:54;;;;;;;;;6.33;4.67;;;;;16.01;49.03;101913.22;6214151;22;45365;-60
2023/05/30 03:13:20;;;;;;;;;6.00;4.33;;;;;16.02;49.16;101906.03;6215224;22;45281;-60
2023/05/30 03:15:45;;;;;;;;;8.67;5.00;;;;;16.00;48.97;101911.47;6188434;22;45218;-60
2023/05/30 03:18:10;;;;;;;;;7.00;5.67;;;;;15.95;49.19;101910.03;6214074;22;59473;-60
2023/05/30 03:20:36;;;;;;;;;8.33;4.00;;;;;15.91;49.00;101913.81;6215312;22;53661;-60
2023/05/30 03:23:02;;;;;;;;;7.00;6.33;;;;;15.87;49.69;101907.75;6187245;22;45445;-60
2023/05/30 03:25:27;;;;;;;;;11.33;5.33;;;;;15.85;48.81;101904.28;6213205;22;45305;-60
2023/05/30 03:27:52;;;;;;;;;7.67;6.67;;;;;15.82;49.64;101899.09;6213209;22;68142;-60
2023/05/30 03:30:18;;;;;;;;;5.00;2.33;;;;;15.79;49.10;101905.47;6214306;22;70241;-60
2023/05/30 03:32:43;;;;;;;;;7.33;6.33;;;;;15.75;49.17;101908.38;6187791;22;45340;-59
2023/05/30 03:35:09;;;;;;;;;7.00;7.00;;;;;15.71;49.15;101905.03;6214790;22;45297;-60
2023/05/30 03:37:34;;;;;;;;;10.00;5.00;;;;;15.68;49.15;101919.47;6186993;22;46396;-60
2023/05/30 03:40:00;;;;;;;;;4.00;4.00;;;;;15.69;49.38;101913.13;6213978;22;45450;-60
2023/05/30 03:42:25;;;;;;;;;7.33;6.00;;;;;15.69;49.37;101913.13;6213846;22;67001;-60
2023/05/30 03:44:51;;;;;;;;;10.67;5.00;;;;;15.66;48.97;101913.31;6187976;22;45337;-59
2023/05/30 03:47:16;;;;;;;;;6.67;5.33;;;;;15.63;49.29;101913.47;6213441;22;69234;-60
2023/05/30 03:49:41;;;;;;;;;5.67;5.33;;;;;15.62;49.07;101927.81;6215200;22;45355;-60
2023/05/30 03:52:07;;;;;;;;;5.00;5.00;;;;;15.56;49.73;101933.50;6213786;22;60059;-60
2023/05/30 03:54:32;;;;;;;;;5.00;5.00;;;;;15.58;49.09;101936.09;6187178;22;45265;-60
2023/05/30 03:56:57;;;;;;;;;6.33;4.00;;;;;15.56;49.46;101933.50;6212957;22;69167;-60
2023/05/30 03:59:23;;;;;;;;;4.00;3.33;;;;;15.57;49.23;101931.72;6214522;22;45336;-60
2023/05/30 04:01:48;;;;;;;;;4.00;3.67;;;;;15.57;49.41;101937.94;6215078;22;45414;-60
2023/05/30 04:04:13;;;;;;;;;8.00;6.33;;;;;15.55;49.41;101937.13;6213806;22;45685;-60
2023/05/30 04:06:39;;;;;;;;;8.00;5.67;;;;;15.55;49.27;101934.44;6213376;22;72278;-61
2023/05/30 04:09:05;;;;;;;;;8.67;6.00;;;;;15.54;49.33;101938.97;6213985;22;45166;-60
2023/05/30 04:11:31;;;;;;;;;6.00;4.00;;;;;15.55;49.28;101939.81;6186859;22;45314;-60
2023/05/30 04:13:56;;;;;;;;;6.00;6.00;;;;;15.54;49.36;101938.09;6186457;22;45426;-60
2023/05/30 04:16:22;;;;;;;;;6.00;6.00;;;;;15.53;49.38;101939.03;6214787;22;46086;-60
2023/05/30 04:18:47;;;;;;;;;12.33;5.00;;;;;15.58;48.89;101941.47;6213788;22;64920;-60
2023/05/30 04:21:14;;;;;;;;;6.00;5.00;;;;;15.57;49.25;101939.75;6214011;22;45375;-60
2023/05/30 04:23:40;;;;;;;;;3.67;3.67;;;;;15.52;49.25;101940.84;6214807;22;45477;-60
2023/05/30 04:26:06;;;;;;;;;6.33;5.33;;;;;15.53;49.19;101944.41;6215570;22;45758;-60
2023/05/30 04:28:32;;;;;;;;;6.67;5.00;;;;;15.50;48.90;101945.44;6187205;22;45371;-60
2023/05/30 04:30:58;;;;;;;;;6.33;5.00;;;;;15.50;49.08;101942.75;6213558;22;45382;-60
2023/05/30 04:33:24;;;;;;;;;5.67;5.00;;;;;15.49;48.67;101948.22;6214865;22;45575;-60
2023/05/30 04:35:50;;;;;;;;;7.33;4.00;;;;;15.50;49.22;101949.91;6214492;22;45339;-60
2023/05/30 04:38:19;;;;;;;;;6.67;5.00;;;;;15.52;49.19;101958.75;6186648;22;45335;-60
2023/05/30 04:40:48;;;;;;;;;6.50;5.00;;;;;15.51;48.99;101957.00;6214293;22;45292;-60
2023/05/30 04:43:14;;;;;;;;;5.33;4.67;;;;;15.52;49.14;101967.66;6187537;22;45336;-60
2023/05/30 04:45:42;;;;;;;;;5.00;4.33;;;;;15.54;48.70;101964.91;6212222;22;45594;-60
2023/05/30 04:48:07;;;;;;;;;6.00;4.67;;;;;15.55;48.47;101974.69;6187262;22;45246;-59
2023/05/30 04:50:32;;;;;;;;;5.00;4.00;;;;;15.57;48.84;101974.63;6187516;22;45489;-59
2023/05/30 04:52:58;;;;;;;;;7.00;5.67;;;;;15.33;48.83;101980.28;6161939;22;45307;-59
2023/05/30 04:55:23;;;;;;;;;7.67;4.00;;;;;15.29;48.53;101984.97;6187065;22;47237;-59
2023/05/30 04:57:49;;;;;;;;;7.00;4.00;;;;;15.28;49.22;101990.38;6214696;22;45331;-59
2023/05/30 05:00:14;;;;;;;;;10.00;5.67;;;;;15.27;48.85;101983.31;6187749;22;45289;-59
2023/05/30 05:02:44;;;;;;;;;5.33;4.67;;;;;15.27;48.75;101976.13;6212293;22;45341;-59
2023/05/30 05:05:09;;;;;;;;;5.67;5.33;;;;;15.30;49.08;101984.00;6213034;22;46383;-59
2023/05/30 05:07:35;;;;;;;;;4.33;4.33;;;;;15.34;48.60;101976.66;6187116;22;45327;-59
2023/05/30 05:10:00;;;;;;;;;5.00;5.00;;;;;15.32;48.53;101981.25;6213167;22;45292;-59
2023/05/30 05:12:26;;;;;;;;;8.00;5.33;;;;;15.33;48.90;101982.97;6212279;22;65008;-59
2023/05/30 05:14:54;;;;;;;;;6.33;5.00;;;;;15.39;48.56;101983.50;6213400;22;45422;-59
2023/05/30 05:17:19;;;;;;;;;4.33;4.33;;;;;15.45;48.72;101984.13;6161706;22;45241;-59
2023/05/30 05:19:44;;;;;;;;;12.67;5.00;;;;;15.54;48.25;101986.38;6213213;22;45351;-60
2023/05/30 05:22:10;;;;;;;;;7.00;6.00;;;;;15.60;48.55;101986.03;6207354;22;45590;-59
2023/05/30 05:24:35;;;;;;;;;4.33;3.00;;;;;15.66;48.05;101983.03;6208207;22;72967;-60
2023/05/30 05:27:01;;;;;;;;;7.00;5.00;;;;;15.66;48.21;101982.19;6210562;22;45839;-60
2023/05/30 05:29:26;;;;;;;;;3.67;3.00;;;;;16.02;47.28;101986.53;6213562;22;45407;-59
2023/05/30 05:31:52;;;;;;;;;8.00;4.00;;;;;15.77;47.35;101985.13;6211926;22;57351;-59
2023/05/30 05:34:17;;;;;;;;;6.00;4.33;;;;;15.78;47.56;101980.66;6213535;22;47685;-60
2023/05/30 05:36:42;;;;;;;;;5.00;4.33;;;;;15.99;47.61;101986.72;6212621;22;68423;-59
2023/05/30 05:39:08;;;;;;;;;6.67;6.33;;;;;15.88;47.47;101987.28;6212109;22;45229;-59
2023/05/30 05:41:34;;;;;;;;;7.00;4.33;;;;;15.92;46.74;101988.84;6187083;22;45367;-59
2023/05/30 05:44:01;;;;;;;;;8.67;6.67;;;;;15.97;46.84;101994.84;6184302;22;45698;-59
2023/05/30 05:46:26;;;;;;;;;7.33;6.33;;;;;16.11;46.18;101985.16;6212483;22;45432;-59
2023/05/30 05:48:54;;;;;;;;;5.67;4.67;;;;;16.08;46.68;101985.34;6180259;22;45593;-59
2023/05/30 05:51:19;;;;;;;;;5.00;2.67;;;;;16.32;45.76;101994.72;6186211;22;45323;-64
2023/05/30 05:53:45;;;;;;;;;0.67;0.67;;;;;16.36;45.90;102000.78;6187962;22;45647;-59
2023/05/30 05:56:10;;;;;;;;;6.67;5.33;;;;;16.14;46.34;101988.56;6211218;22;65993;-59
2023/05/30 05:58:35;;;;;;;;;6.67;5.33;;;;;16.41;46.05;102000.53;6187842;22;45386;-60
2023/05/30 06:01:02;;;;;;;;;6.67;5.00;;;;;16.51;45.51;101999.06;6214221;22;45543;-60
2023/05/30 06:03:27;;;;;;;;;6.33;5.00;;;;;16.53;45.64;101998.03;6187601;22;45917;-59
2023/05/30 06:05:53;;;;;;;;;5.00;4.00;;;;;16.33;45.78;101995.59;6213466;22;45404;-59
2023/05/30 06:08:18;;;;;;;;;6.67;5.67;;;;;16.34;45.72;102000.00;6188448;22;45323;-59
2023/05/30 06:10:44;;;;;;;;;6.00;5.67;;;;;16.40;45.47;101994.31;6214451;22;53803;-59
2023/05/30 06:13:09;;;;;;;;;10.33;4.67;;;;;16.42;45.42;101996.91;6185456;22;47537;-60
2023/05/30 06:15:34;;;;;;;;;5.00;4.67;;;;;16.48;45.44;102005.47;6214264;22;45567;-59
2023/05/30 06:18:00;;;;;;;;;6.00;5.67;;;;;16.80;45.37;102002.78;6214490;22;45678;-59
2023/05/30 06:20:25;;;;;;;;;4.00;4.00;;;;;16.91;47.44;102004.91;6214759;22;45267;-57
2023/05/30 06:22:51;;;;;;;;;5.67;5.00;;;;;17.46;44.96;102000.75;6212175;22;45353;-54
2023/05/30 06:25:17;;;;;;;;;4.33;4.00;;;;;17.88;44.73;102009.00;6213987;22;45313;-57
2023/05/30 06:27:42;;;;;;;;;5.33;4.00;;;;;18.31;44.39;102002.75;6187421;22;45386;-57
2023/05/30 06:30:08;;;;;;;;;6.00;4.33;;;;;18.71;43.46;102002.00;6213000;22;60002;-57
2023/05/30 06:32:33;;;;;;;;;1.00;0.00;;;;;19.17;42.69;101997.13;6186038;22;48224;-57
2023/05/30 06:34:58;;;;;;;;;7.00;5.00;;;;;20.32;41.10;101991.91;6186564;22;45720;-58
2023/05/30 06:37:24;;;;;;;;;6.00;4.00;;;;;21.71;39.85;101995.03;6213877;22;68073;-59
2023/05/30 06:39:49;;;;;;;;;7.33;4.00;;;;;23.13;37.45;101994.34;6214628;22;45343;-58
2023/05/30 06:42:14;;;;;;;;;6.67;5.00;;;;;24.43;34.34;101991.25;6213036;22;70961;-57
2023/05/30 06:44:40;;;;;;;;;7.33;5.00;;;;;25.57;33.44;101987.16;6214303;22;45343;-57
2023/05/30 06:47:06;;;;;;;;;5.33;4.00;;;;;26.53;32.07;101986.03;6214067;22;58374;-59
2023/05/30 06:49:31;;;;;;;;;9.00;3.33;;;;;27.21;31.27;101993.72;6162916;22;45326;-57
2023/05/30 06:51:56;;;;;;;;;5.33;4.00;;;;;28.19;30.10;101981.75;6187688;22;45374;-57
2023/05/30 06:54:22;;;;;;;;;5.33;4.00;;;;;29.29;27.01;101990.88;6214257;22;70022;-58
2023/05/30 06:56:47;;;;;;;;;4.33;4.00;;;;;29.94;27.89;101984.44;6188763;22;45333;-59
2023/05/30 06:59:13;;;;;;;;;8.33;4.33;;;;;29.96;23.49;101989.72;6213397;22;45412;-59
2023/05/30 07:01:38;;;;;;;;;4.67;4.00;;;;;29.94;26.93;101994.56;6214936;22;45221;-58
2023/05/30 07:04:03;;;;;;;;;11.00;3.00;;;;;30.24;26.78;101992.03;6188098;22;45354;-58
2023/05/30 07:06:29;;;;;;;;;5.67;2.67;;;;;30.95;24.53;102000.19;6188237;22;56427;-58
2023/05/30 07:08:54;;;;;;;;;3.00;2.33;;;;;31.58;24.52;102002.78;6188435;22;45218;-59
2023/05/30 07:11:20;;;;;;;;;3.33;3.33;;;;;32.52;24.10;102004.94;6215293;22;49654;-58
2023/05/30 07:13:45;;;;;;;;;6.67;2.67;;;;;32.81;22.61;102012.28;6215688;22;45225;-58
2023/05/30 07:16:10;;;;;;;;;3.00;3.00;;;;;32.82;22.39;102007.63;6214297;22;58601;-58
2023/05/30 07:18:36;;;;;;;;;4.00;4.00;;;;;32.86;23.03;101999.84;6189127;22;45350;-59
2023/05/30 07:21:01;;;;;;;;;3.67;3.67;;;;;32.99;20.67;102009.06;6213244;22;74318;-59
2023/05/30 07:23:26;;;;;;;;;3.67;3.67;;;;;33.15;20.63;102010.72;6215049;22;45249;-58
2023/05/30 07:25:52;;;;;;;;;4.00;3.00;;;;;33.50;21.45;102003.59;6214824;22;45296;-59
2023/05/30 07:28:20;;;;;;;;;4.33;3.00;;;;;34.05;21.21;102007.34;6215548;22;45310;-58
2023/05/30 07:30:45;;;;;;;;;4.33;2.00;;;;;34.52;20.61;102001.19;6214650;22;46151;-59
2023/05/30 07:33:10;;;;;;;;;4.33;4.00;;;;;35.17;20.44;102001.50;6214935;22;45352;-58
2023/05/30 07:35:36;;;;;;;;;5.67;2.00;;;;;35.81;20.62;102003.81;6215567;22;45206;-58
2023/05/30 07:38:01;;;;;;;;;2.75;2.50;;;;;36.02;19.20;102000.81;6214830;22;45602;-58
2023/05/30 07:40:26;;;;;;;;;5.33;4.00;;;;;36.12;18.50;102002.25;6186391;22;72753;-59
2023/05/30 07:42:52;;;;;;;;;5.67;3.33;;;;;36.32;17.50;102000.22;6213266;22;69421;-59
2023/05/30 07:45:19;;;;;;;;;5.67;4.00;;;;;36.74;17.13;101997.03;6215276;22;45299;-59
2023/05/30 07:47:44;;;;;;;;;3.00;3.00;;;;;37.21;19.08;101999.47;6215044;22;45346;-59
2023/05/30 07:50:10;;;;;;;;;3.50;3.25;;;;;38.06;17.41;102012.72;6214915;22;46036;-59
2023/05/30 07:52:36;;;;;;;;;5.00;4.00;;;;;38.35;16.00;102003.84;6188873;22;45259;-59
2023/05/30 07:55:02;;;;;;;;;3.50;2.25;;;;;38.44;16.13;102004.38;6187576;22;45308;-59
2023/05/30 07:57:27;;;;;;;;;7.33;3.67;;;;;38.70;16.65;102005.91;6214946;22;45173;-58
2023/05/30 07:59:52;;;;;;;;;6.25;4.25;;;;;38.88;15.81;102011.44;6187699;22;46226;-58
2023/05/30 08:02:19;;;;;;;;;4.00;2.50;;;;;38.92;16.50;102011.81;6188038;22;49736;-58
2023/05/30 08:04:44;;;;;;;;;2.25;2.00;;;;;39.08;16.52;102009.41;6215524;22;45265;-58
2023/05/30 08:07:10;;;;;;;;;2.75;2.50;;;;;39.37;15.12;102008.50;6187810;22;45237;-59
2023/05/30 08:09:36;;;;;;;;;5.00;3.00;;;;;39.48;16.23;102012.34;6214498;22;46292;-59
2023/05/30 08:12:03;;;;;;;;;4.00;2.75;;;;;39.96;14.81;102017.88;6187320;22;45257;-59
2023/05/30 08:14:28;;;;;;;;;4.25;4.25;;;;;40.19;15.56;102012.25;6213260;22;45398;-59
2023/05/30 08:16:53;;;;;;;;;3.50;3.00;;;;;40.46;15.44;102020.03;6214339;22;45576;-59
2023/05/30 08:19:21;;;;;;;;;3.25;3.25;;;;;41.08;15.25;102020.34;6186910;22;62214;-59
2023/05/30 08:21:47;;;;;;;;;4.25;3.00;;;;;41.70;15.18;102022.16;6215675;22;45283;-59
2023/05/30 08:24:15;;;;;;;;;2.00;2.00;;;;;41.69;12.40;102028.84;6214680;22;45312;-59
2023/05/30 08:26:41;;;;;;;;;3.50;3.25;;;;;41.45;12.72;102020.69;6189060;22;45419;-59
2023/05/30 08:29:06;;;;;;;;;4.25;2.00;;;;;41.47;12.79;102031.59;6188082;22;46409;-59
2023/05/30 08:31:32;;;;;;;;;5.00;3.00;;;;;42.15;13.41;102018.31;6214641;22;45437;-59
2023/05/30 08:33:58;;;;;;;;;5.67;4.00;;;;;42.81;13.26;102022.09;6187684;22;45376;-59
2023/05/30 08:36:23;;;;;;;;;3.00;3.00;;;;;43.31;13.61;102020.00;6214877;22;45298;-59
2023/05/30 08:38:53;;;;;;;;;4.00;3.00;;;;;43.45;12.44;102028.78;6214476;22;50692;-59
2023/05/30 08:41:22;;;;;;;;;2.00;2.00;;;;;43.88;11.50;102017.56;6214760;22;45332;-59
2023/05/30 08:43:49;;;;;;;;;1.00;1.00;;;;;44.26;11.94;102021.06;6214421;22;45347;-59
2023/05/30 08:46:16;;;;;;;;;2.50;2.50;;;;;44.81;11.82;102015.03;6187388;22;45460;-59
2023/05/30 08:48:42;;;;;;;;;2.25;2.00;;;;;45.79;11.00;102027.00;6188135;22;46513;-59
2023/05/30 08:51:12;;;;;;;;;6.33;3.00;;;;;46.02;10.98;102011.44;6187181;22;45668;-59
2023/05/30 08:53:45;;;;;;;;;4.50;3.75;;;;;46.33;10.53;102011.28;6214231;22;45431;-59
2023/05/30 08:56:21;;;;;;;;;4.00;2.50;;;;;46.79;11.26;102001.69;6187478;22;45667;-60
2023/05/30 08:58:47;;;;;;;;;4.75;2.25;;;;;47.69;8.88;102001.34;6163002;22;48113;-59
2023/05/30 09:01:14;;;;;;;;;3.50;2.00;;;;;48.23;10.08;102001.22;6214137;22;45336;-60
2023/05/30 09:03:42;;;;;;;;;2.75;2.75;;;;;48.90;10.64;102000.16;6213589;22;67238;-59
2023/05/30 09:06:08;;;;;;;;;3.67;3.67;;;;;49.62;8.75;102007.25;6186954;22;45410;-60
2023/05/30 09:08:34;;;;;;;;;3.25;2.25;;;;;49.61;8.60;102019.72;6214266;22;46226;-60
2023/05/30 09:11:00;;;;;;;;;3.25;2.50;;;;;50.17;9.09;102002.72;6187351;22;45509;-60
2023/05/30 09:13:25;;;;;;;;;5.50;4.50;;;;;51.15;9.14;102005.94;6214851;22;45383;-59
2023/05/30 09:15:51;;;;;;;;;6.50;2.00;;;;;51.69;8.08;102009.47;6214289;22;47890;-60
2023/05/30 09:18:17;;;;;;;;;4.50;2.75;;;;;51.62;8.30;102000.66;6187632;22;46290;-60
2023/05/30 09:20:42;;;;;;;;;6.00;3.00;;;;;51.75;7.73;102004.50;6214067;22;45328;-60
2023/05/30 09:23:08;;;;;;;;;7.25;3.75;;;;;51.48;8.10;101999.91;6186708;22;45285;-59
2023/05/30 09:25:42;;;;;;;;;5.00;2.75;;;;;51.03;7.58;101995.19;6188008;22;45313;-59
2023/05/30 09:28:07;;;;;;;;;5.00;3.25;;;;;50.99;8.28;101989.34;6214713;22;45438;-59
2023/05/30 09:30:33;;;;;;;;;2.25;2.25;;;;;50.68;7.91;101992.13;6215758;22;45350;-60
2023/05/30 09:33:02;;;;;;;;;4.50;2.00;;;;;50.07;7.71;101989.66;6214010;22;61988;-59
2023/05/30 09:35:27;;;;;;;;;3.75;3.50;;;;;48.99;8.14;101992.69;6216610;22;45201;-60
2023/05/30 09:37:53;;;;;;;;;4.50;2.00;;;;;47.99;8.89;101996.47;6188734;22;46416;-59
2023/05/30 09:40:18;;;;;;;;;6.25;3.25;;;;;48.08;8.81;101991.00;6214579;22;69288;-59
2023/05/30 09:42:49;;;;;;;;;2.75;1.75;;;;;48.29;8.23;101989.56;6214874;22;68449;-60
2023/05/30 09:45:24;;;;;;;;;3.50;3.00;;;;;48.66;8.96;101996.31;6215389;22;45313;-59
2023/05/30 09:47:51;;;;;;;;;4.00;2.50;;;;;49.21;8.46;101994.78;6215314;22;45356;-60
2023/05/30 09:50:22;;;;;;;;;8.25;2.50;;;;;49.94;7.83;101997.00;6188664;22;45318;-59
2023/05/30 09:52:56;;;;;;;;;6.50;2.00;;;;;50.38;8.28;101992.63;6189205;22;45349;-60
2023/05/30 09:55:24;;;;;;;;;5.75;4.00;;;;;50.68;8.46;101990.16;6190635;22;45327;-60
2023/05/30 09:57:51;;;;;;;;;2.50;2.25;;;;;51.17;7.89;101978.97;6188248;22;47197;-59
2023/05/30 10:00:22;;;;;;;;;3.25;2.50;;;;;51.17;7.19;101997.97;6215707;22;45304;-60
2023/05/30 10:02:55;;;;;;;;;2.25;2.25;;;;;51.01;7.44;101992.69;6215903;22;45333;-59
2023/05/30 10:05:22;;;;;;;;;0.75;0.50;;;;;50.66;7.90;101991.66;6215932;22;45340;-60
2023/05/30 10:07:49;;;;;;;;;6.00;2.00;;;;;50.91;8.11;101990.16;6215899;22;45344;-59
2023/05/30 10:10:15;;;;;;;;;5.50;2.00;;;;;51.61;7.60;101990.47;6187990;22;45750;-59
2023/05/30 10:12:48;;;;;;;;;3.50;3.00;;;;;52.09;7.29;101988.75;6216042;22;45234;-60
2023/05/30 10:15:13;;;;;;;;;5.00;2.00;;;;;52.60;7.20;101986.22;6163105;22;45519;-60
2023/05/30 10:17:45;;;;;;;;;3.50;2.25;;;;;53.08;7.22;101995.59;6188168;22;45357;-60
2023/05/30 10:20:12;;;;;;;;;6.25;3.00;;;;;53.36;7.04;101995.16;6188295;22;45380;-60
2023/05/30 10:22:43;;;;;;;;;5.75;3.00;;;;;53.58;6.15;101996.91;6215363;22;45824;-60
2023/05/30 10:25:09;;;;;;;;;5.50;4.25;;;;;53.62;7.02;101991.38;6214994;22;45277;-60
2023/05/30 10:27:41;;;;;;;;;3.25;2.00;;;;;53.60;6.13;102000.22;6215072;22;46270;-60
2023/05/30 10:30:07;;;;;;;;;2.25;2.25;;;;;52.90;6.33;101994.84;6214806;22;45290;-60
2023/05/30 10:32:36;;;;;;;;;2.75;2.75;;;;;52.56;6.75;101988.06;6214711;22;45284;-60
2023/05/30 10:35:08;;;;;;;;;3.75;2.00;;;;;53.22;6.90;101990.56;6214765;22;45547;-60
2023/05/30 10:37:35;;;;;;;;;4.75;2.25;;;;;53.29;6.15;101989.16;6188157;22;45760;-60
2023/05/30 10:40:07;;;;;;;;;3.00;3.00;;;;;53.74;6.30;101988.59;6188324;22;45664;-60
2023/05/30 10:42:46;;;;;;;;;3.75;2.25;;;;;53.72;5.84;101988.94;6215765;22;45287;-60
2023/05/30 10:45:18;;;;;;;;;2.25;2.25;;;;;53.05;6.07;101982.91;6188577;22;45684;-60
2023/05/30 10:48:09;;;;;;;;;3.75;2.00;;;;;53.11;6.23;101986.44;6188634;22;45800;-61
2023/05/30 10:50:40;;;;;;;;;4.00;3.00;;;;;52.78;6.39;101978.53;6215853;22;45329;-60
2023/05/30 10:53:18;;;;;;;;;1.25;1.25;;;;;52.46;6.94;101982.75;6212877;22;45650;-60
2023/05/30 10:55:46;;;;;;;;;4.00;2.00;;;;;52.66;6.96;101970.66;6188664;22;45329;-60
2023/05/30 10:58:35;;;;;;;;;3.00;3.00;;;;;52.31;6.30;101959.38;6214410;22;46184;-59
2023/05/30 11:01:32;;;;;;;;;5.50;2.50;;;;;51.83;6.63;101961.19;6214655;22;45657;-59
2023/05/30 11:04:28;;;;;;;;;4.25;1.50;;;;;51.16;6.79;101960.28;6213353;22;45296;-60
2023/05/30 11:06:55;;;;;;;;;2.50;2.25;;;;;51.19;7.61;101964.47;6213400;22;45240;-60
2023/05/30 11:09:20;;;;;;;;;2.75;2.75;;;;;51.28;7.37;101954.00;6215126;22;45295;-59
2023/05/30 11:11:52;;;;;;;;;2.75;2.75;;;;;51.00;7.67;101953.41;6188158;22;45349;-61
2023/05/30 11:14:30;;;;;;;;;8.25;3.25;;;;;51.15;7.18;101954.97;6188425;22;45427;-60
2023/05/30 11:17:05;;;;;;;;;5.50;3.00;;;;;50.84;6.85;101953.81;6188008;22;45281;-60
2023/05/30 11:19:49;;;;;;;;;2.50;1.75;;;;;50.43;7.04;101941.59;6214903;22;46466;-60
2023/05/30 11:22:17;;;;;;;;;4.25;3.50;;;;;49.71;7.84;101940.41;6214943;22;45169;-60
2023/05/30 11:24:43;;;;;;;;;1.00;0.00;;;;;49.65;7.63;101933.19;6215448;22;45292;-60
2023/05/30 11:27:09;;;;;;;;;4.00;3.00;;;;;49.03;7.31;101950.56;6162497;22;45628;-60